Time;durP1;ratioP1;P1;durP2;ratioP2;P2;SDS_P1;SDS_P2;PMS_P1;PMS_P2;Temp;Humidity;BMP_temperature;BMP_pressure;BME280_temperature;BME280_humidity;BME280_pressure;Samples;Min_cycle;Max_cycle;Signal;HPM_P1;HPM_P2
2023/03/05 00:00:41;;;;;;;;;;;;;;;3.38;100.00;102211.56;5025274;28;19931;-73
2023/03/05 00:03:06;;;;;;;;;;;;;;;3.45;100.00;102209.63;5025877;28;20048;-73
2023/03/05 00:05:33;;;;;;;;;;;;;;;3.49;100.00;102213.06;5022474;28;19929;-72
2023/03/05 00:07:58;;;;;;;;;;;;;;;3.46;100.00;102211.38;5026550;28;19921;-73
2023/03/05 00:10:24;;;;;;;;;;;;;;;3.39;100.00;102209.78;5023538;28;19956;-73
2023/03/05 00:12:49;;;;;;;;;;;;;;;3.40;100.00;102203.56;5023049;28;20024;-73
2023/03/05 00:15:14;;;;;;;;;;;;;;;3.42;100.00;102204.38;5021493;28;19921;-73
2023/03/05 00:17:39;;;;;;;;;;;;;;;3.42;100.00;102207.03;5006610;28;20288;-73
2023/03/05 00:20:05;;;;;;;;;;;;;;;3.43;100.00;102198.16;5026103;28;19942;-72
2023/03/05 00:22:30;;;;;;;;;;;;;;;3.37;100.00;102193.91;5022044;28;19925;-73
2023/03/05 00:24:55;;;;;;;;;;;;;;;3.32;100.00;102192.25;5023155;28;19921;-72
2023/03/05 00:27:20;;;;;;;;;;;;;;;3.30;100.00;102203.81;5005811;28;19956;-73
2023/03/05 00:29:46;;;;;;;;;;;;;;;3.29;100.00;102195.88;5021465;28;20055;-73
2023/03/05 00:32:11;;;;;;;;;;;;;;;3.26;100.00;102191.50;5024651;28;20410;-72
2023/03/05 00:34:36;;;;;;;;;;;;;;;3.24;100.00;102193.34;5022116;28;19929;-73
2023/03/05 00:37:01;;;;;;;;;;;;;;;3.28;100.00;102192.34;5020902;28;19922;-73
2023/03/05 00:39:27;;;;;;;;;;;;;;;3.41;100.00;102197.31;5005337;28;19927;-72
2023/03/05 00:41:52;;;;;;;;;;;;;;;3.35;100.00;102184.22;5020097;28;20260;-73
2023/03/05 00:44:17;;;;;;;;;;;;;;;3.30;100.00;102185.22;5024863;28;19921;-73
2023/03/05 00:46:42;;;;;;;;;;;;;;;3.25;100.00;102183.56;5028427;28;20369;-72
2023/03/05 00:49:08;;;;;;;;;;;;;;;3.26;100.00;102182.66;5020890;28;19921;-73
2023/03/05 00:51:33;;;;;;;;;;;;;;;3.27;100.00;102169.38;5010028;28;19924;-73
2023/03/05 00:53:58;;;;;;;;;;;;;;;3.28;100.00;102173.78;5018085;28;20190;-73
2023/03/05 00:56:23;;;;;;;;;;;;;;;3.28;100.00;102171.13;5009704;28;20046;-73
2023/03/05 00:58:48;;;;;;;;;;;;;;;3.27;100.00;102169.38;5023533;28;19966;-73
2023/03/05 01:01:14;;;;;;;;;;;;;;;3.27;100.00;102166.72;5019582;28;19920;-73
2023/03/05 01:03:39;;;;;;;;;;;;;;;3.35;100.00;102166.50;5029954;28;19956;-73
2023/03/05 01:06:06;;;;;;;;;;;;;;;3.30;100.00;102157.78;5022717;28;19953;-72
2023/03/05 01:08:32;;;;;;;;;;;;;;;3.32;100.00;102158.63;5026799;28;19913;-73
2023/03/05 01:10:57;;;;;;;;;;;;;;;3.23;100.00;102158.84;5014490;28;20323;-72
2023/03/05 01:13:23;;;;;;;;;;;;;;;3.16;100.00;102160.78;5025008;28;19929;-72
2023/03/05 01:15:49;;;;;;;;;;;;;;;3.11;100.00;102157.38;5022605;28;20437;-72
2023/03/05 01:18:15;;;;;;;;;;;;;;;3.18;100.00;102160.78;5026916;28;19917;-73
2023/03/05 01:20:40;;;;;;;;;;;;;;;3.12;100.00;102153.81;5016284;28;20390;-72
2023/03/05 01:23:05;;;;;;;;;;;;;;;3.13;100.00;102148.50;5019953;28;19967;-73
2023/03/05 01:25:30;;;;;;;;;;;;;;;3.12;100.00;102156.47;5014394;28;20039;-73
2023/03/05 01:27:56;;;;;;;;;;;;;;;3.06;100.00;102152.19;5006349;28;20012;-73
2023/03/05 01:30:21;;;;;;;;;;;;;;;3.12;100.00;102151.16;5019118;28;19971;-73
2023/03/05 01:32:46;;;;;;;;;;;;;;;3.17;100.00;102143.09;5016242;28;20016;-72
2023/03/05 01:35:16;;;;;;;;;;;;;;;3.17;100.00;102135.16;5001274;28;20605;-72
2023/03/05 01:37:41;;;;;;;;;;;;;;;3.16;100.00;102131.59;5022964;28;20043;-72
2023/03/05 01:40:06;;;;;;;;;;;;;;;3.13;100.00;102124.59;5026461;28;20415;-72
2023/03/05 01:42:32;;;;;;;;;;;;;;;3.11;100.00;102120.22;5013985;28;20405;-72
2023/03/05 01:45:05;;;;;;;;;;;;;;;3.15;100.00;102125.44;5017802;28;19921;-73
2023/03/05 01:47:31;;;;;;;;;;;;;;;3.15;100.00;102119.25;5022001;28;20226;-72
2023/03/05 01:49:56;;;;;;;;;;;;;;;3.04;100.00;102121.31;5017021;28;19928;-73
2023/03/05 01:52:22;;;;;;;;;;;;;;;2.98;100.00;102106.41;4999746;28;19964;-73
2023/03/05 01:54:55;;;;;;;;;;;;;;;3.02;100.00;102107.22;5021266;28;19948;-73
2023/03/05 01:57:23;;;;;;;;;;;;;;;3.06;100.00;102101.78;5018149;28;19928;-73
2023/03/05 01:59:50;;;;;;;;;;;;;;;3.12;100.00;102098.97;5021490;28;19964;-72
2023/03/05 02:02:15;;;;;;;;;;;;;;;3.17;100.00;102095.34;5005418;28;19923;-72
2023/03/05 02:04:45;;;;;;;;;;;;;;;3.14;100.00;102086.53;5018123;28;19921;-72
2023/03/05 02:07:11;;;;;;;;;;;;;;;3.12;100.00;102087.47;5016364;28;19925;-72
2023/03/05 02:09:37;;;;;;;;;;;;;;;2.77;100.00;102055.66;5016665;28;19929;-73
2023/03/05 02:12:02;;;;;;;;;;;;;;;2.87;100.00;102077.50;5005460;28;20125;-72
2023/03/05 02:14:27;;;;;;;;;;;;;;;2.84;100.00;102073.16;5021832;28;19931;-73
2023/03/05 02:16:53;;;;;;;;;;;;;;;2.86;100.00;102070.44;5024958;28;19921;-72
2023/03/05 02:19:18;;;;;;;;;;;;;;;2.85;100.00;102066.94;5024591;28;20016;-72
2023/03/05 02:21:44;;;;;;;;;;;;;;;2.87;100.00;102066.03;5015982;28;20111;-73
2023/03/05 02:24:14;;;;;;;;;;;;;;;2.91;100.00;102062.41;5027073;28;19920;-72
2023/03/05 02:26:41;;;;;;;;;;;;;;;2.89;100.00;102061.56;5020186;28;20348;-72
2023/03/05 02:29:07;;;;;;;;;;;;;;;2.91;100.00;102057.94;5021670;28;19923;-72
2023/03/05 02:31:32;;;;;;;;;;;;;;;2.95;100.00;102045.47;5020679;28;20207;-72
2023/03/05 02:33:58;;;;;;;;;;;;;;;2.96;100.00;102048.09;5020449;28;19932;-73
2023/03/05 02:36:23;;;;;;;;;;;;;;;2.98;100.00;102042.72;5020768;28;20040;-72
2023/03/05 02:38:49;;;;;;;;;;;;;;;3.03;100.00;102039.97;5029063;28;20433;-72
2023/03/05 02:41:14;;;;;;;;;;;;;;;3.05;100.00;102036.34;5024195;28;19928;-72
2023/03/05 02:43:40;;;;;;;;;;;;;;;2.95;100.00;102032.19;5020579;28;19921;-72
2023/03/05 02:46:05;;;;;;;;;;;;;;;3.05;100.00;102030.16;5022950;28;19980;-72
2023/03/05 02:48:30;;;;;;;;;;;;;;;3.08;100.00;102022.13;5022269;28;20278;-72
2023/03/05 02:50:55;;;;;;;;;;;;;;;3.03;100.00;102026.72;5018744;28;19928;-72
2023/03/05 02:53:22;;;;;;;;;;;;;;;2.94;100.00;102017.19;5023306;28;20364;-73
2023/03/05 02:55:47;;;;;;;;;;;;;;;2.85;100.00;102013.88;5026606;28;19997;-72
2023/03/05 02:58:13;;;;;;;;;;;;;;;2.83;100.00;102018.34;5025809;28;19925;-73
2023/03/05 03:00:38;;;;;;;;;;;;;;;2.77;100.00;102015.84;5028526;28;19921;-72
2023/03/05 03:03:03;;;;;;;;;;;;;;;2.81;100.00;102006.03;5008904;28;20006;-73
2023/03/05 03:05:28;;;;;;;;;;;;;;;2.69;100.00;102004.56;5028905;28;19920;-72
2023/03/05 03:07:53;;;;;;;;;;;;;;;2.60;100.00;101996.88;5030059;28;20056;-73
2023/03/05 03:10:19;;;;;;;;;;;;;;;2.59;100.00;101992.47;5032941;28;20172;-73
2023/03/05 03:12:44;;;;;;;;;;;;;;;2.60;100.00;101988.91;5020249;28;19921;-72
2023/03/05 03:15:10;;;;;;;;;;;;;;;2.71;100.00;101997.44;5035433;28;19961;-72
2023/03/05 03:17:35;;;;;;;;;;;;;;;2.78;100.00;102001.69;5026916;28;20005;-73
2023/03/05 03:20:02;;;;;;;;;;;;;;;2.81;100.00;101992.75;5017339;28;20270;-73
2023/03/05 03:22:27;;;;;;;;;;;;;;;2.85;100.00;101999.72;5032729;28;20367;-72
2023/03/05 03:24:52;;;;;;;;;;;;;;;2.84;100.00;101990.03;5023376;28;20256;-72
2023/03/05 03:27:17;;;;;;;;;;;;;;;2.84;100.00;101987.38;5010052;28;19983;-72
2023/03/05 03:29:43;;;;;;;;;;;;;;;2.70;100.00;101959.47;5006479;28;19944;-73
2023/03/05 03:32:08;;;;;;;;;;;;;;;2.86;100.00;101980.25;5017427;28;19921;-73
2023/03/05 03:34:33;;;;;;;;;;;;;;;2.89;100.00;101979.31;5032889;28;20291;-73
2023/03/05 03:36:58;;;;;;;;;;;;;;;2.84;100.00;101975.00;5030666;28;19925;-73
2023/03/05 03:39:24;;;;;;;;;;;;;;;2.89;100.00;101976.66;5029503;28;19917;-73
2023/03/05 03:41:50;;;;;;;;;;;;;;;2.85;100.00;101968.78;5008400;28;19928;-72
2023/03/05 03:44:16;;;;;;;;;;;;;;;2.87;100.00;101963.44;5036931;28;19921;-72
2023/03/05 03:46:43;;;;;;;;;;;;;;;2.88;100.00;101970.47;5010311;28;20299;-72
2023/03/05 03:49:11;;;;;;;;;;;;;;;2.92;100.00;101957.97;5016155;28;19921;-72
2023/03/05 03:51:36;;;;;;;;;;;;;;;2.92;100.00;101968.59;5022841;28;19925;-73
2023/03/05 03:54:01;;;;;;;;;;;;;;;2.90;100.00;101967.81;5024790;28;19929;-72
2023/03/05 03:56:26;;;;;;;;;;;;;;;2.92;100.00;101966.84;5024993;28;19998;-73
2023/03/05 03:58:52;;;;;;;;;;;;;;;2.91;100.00;101961.59;5022067;28;20361;-73
2023/03/05 04:01:18;;;;;;;;;;;;;;;2.93;100.00;101952.66;5011475;28;20383;-73
2023/03/05 04:03:43;;;;;;;;;;;;;;;2.88;100.00;101961.66;5029793;28;20541;-73
2023/03/05 04:06:08;;;;;;;;;;;;;;;2.93;100.00;101951.78;5009581;28;19952;-72
2023/03/05 04:08:34;;;;;;;;;;;;;;;2.84;100.00;101942.28;5020782;28;19956;-73
2023/03/05 04:11:00;;;;;;;;;;;;;;;2.82;100.00;101950.31;5010300;28;20005;-72
2023/03/05 04:13:25;;;;;;;;;;;;;;;2.88;100.00;101943.09;5012892;28;20307;-72
2023/03/05 04:15:50;;;;;;;;;;;;;;;2.88;100.00;101935.13;5012811;28;20515;-72
2023/03/05 04:18:16;;;;;;;;;;;;;;;2.83;100.00;101930.81;5022861;28;19951;-73
2023/03/05 04:20:41;;;;;;;;;;;;;;;2.85;100.00;101930.75;5011462;28;19963;-72
2023/03/05 04:23:06;;;;;;;;;;;;;;;2.80;100.00;101932.66;5001135;28;19924;-72
2023/03/05 04:25:31;;;;;;;;;;;;;;;2.86;100.00;101935.16;5020594;28;19924;-72
2023/03/05 04:27:56;;;;;;;;;;;;;;;2.79;100.00;101928.28;5015939;28;19964;-73
2023/03/05 04:30:22;;;;;;;;;;;;;;;2.85;100.00;101928.13;5015627;28;20020;-72
2023/03/05 04:32:47;;;;;;;;;;;;;;;2.85;100.00;101929.00;5020620;28;19956;-73
2023/03/05 04:35:12;;;;;;;;;;;;;;;2.77;100.00;101922.16;5017989;28;20067;-72
2023/03/05 04:37:37;;;;;;;;;;;;;;;2.77;100.00;101915.06;5002899;28;20438;-73
2023/03/05 04:40:03;;;;;;;;;;;;;;;2.84;100.00;101918.41;5015596;28;21459;-72
2023/03/05 04:42:29;;;;;;;;;;;;;;;2.88;100.00;101916.56;5016596;28;19925;-72
2023/03/05 04:44:54;;;;;;;;;;;;;;;2.91;100.00;101917.34;5018125;28;19928;-72
2023/03/05 04:47:19;;;;;;;;;;;;;;;2.90;100.00;101917.41;5019216;28;19921;-72
2023/03/05 04:49:44;;;;;;;;;;;;;;;2.83;100.00;101914.91;5005060;28;19991;-72
2023/03/05 04:52:10;;;;;;;;;;;;;;;2.83;100.00;101908.72;5018020;28;20206;-72
2023/03/05 04:54:36;;;;;;;;;;;;;;;2.85;100.00;101909.53;5018202;28;20132;-72
2023/03/05 04:57:01;;;;;;;;;;;;;;;2.88;100.00;101908.59;5014697;28;19960;-72
2023/03/05 04:59:26;;;;;;;;;;;;;;;2.91;100.00;101911.19;5017619;28;20015;-72
2023/03/05 05:01:51;;;;;;;;;;;;;;;2.87;100.00;101899.75;5021321;28;19921;-72
2023/03/05 05:04:16;;;;;;;;;;;;;;;2.86;100.00;101890.06;5004246;28;19998;-72
2023/03/05 05:06:42;;;;;;;;;;;;;;;2.83;100.00;101893.69;5019429;28;19979;-72
2023/03/05 05:09:07;;;;;;;;;;;;;;;2.76;100.00;101884.16;5017275;28;19925;-72
2023/03/05 05:11:32;;;;;;;;;;;;;;;2.67;100.00;101884.41;5020252;28;19928;-72
2023/03/05 05:13:57;;;;;;;;;;;;;;;2.57;100.00;101877.63;5017576;28;19925;-73
2023/03/05 05:16:23;;;;;;;;;;;;;;;2.49;100.00;101884.00;5018310;28;19927;-72
2023/03/05 05:18:48;;;;;;;;;;;;;;;2.51;100.00;101874.22;5002801;28;19952;-72
2023/03/05 05:21:13;;;;;;;;;;;;;;;2.49;100.00;101872.56;5018330;28;20429;-72
2023/03/05 05:23:38;;;;;;;;;;;;;;;2.52;100.00;101870.66;5012946;28;20367;-72
2023/03/05 05:26:04;;;;;;;;;;;;;;;2.48;100.00;101870.81;5020545;28;19976;-72
2023/03/05 05:28:30;;;;;;;;;;;;;;;2.45;100.00;101865.59;5019601;28;20007;-72
2023/03/05 05:30:55;;;;;;;;;;;;;;;2.45;100.00;101868.25;5014727;28;19964;-72
2023/03/05 05:33:21;;;;;;;;;;;;;;;2.44;100.00;101869.16;5003460;28;20016;-72
2023/03/05 05:35:46;;;;;;;;;;;;;;;2.51;100.00;101865.44;5017074;28;21663;-72
2023/03/05 05:38:11;;;;;;;;;;;;;;;2.53;100.00;101863.56;5018037;28;20019;-73
2023/03/05 05:40:36;;;;;;;;;;;;;;;2.58;100.00;101869.63;5009267;28;20019;-72
2023/03/05 05:43:02;;;;;;;;;;;;;;;2.59;100.00;101862.56;5021030;28;20007;-72
2023/03/05 05:45:27;;;;;;;;;;;;;;;2.52;100.00;101865.38;5025828;28;19925;-72
2023/03/05 05:47:52;;;;;;;;;;;;;;;2.55;100.00;101862.63;5015861;28;19931;-73
2023/03/05 05:50:18;;;;;;;;;;;;;;;2.58;100.00;101861.66;5030111;28;19921;-72
2023/03/05 05:52:43;;;;;;;;;;;;;;;2.55;100.00;101860.00;5015882;28;19931;-72
2023/03/05 05:55:09;;;;;;;;;;;;;;;2.59;100.00;101852.81;5024659;28;20039;-72
2023/03/05 05:57:34;;;;;;;;;;;;;;;2.51;100.00;101849.53;5007071;28;19921;-72
2023/03/05 05:59:59;;;;;;;;;;;;;;;2.58;100.00;101853.72;5022123;28;20311;-72
2023/03/05 06:02:26;;;;;;;;;;;;;;;2.62;100.00;101851.88;5020032;28;19940;-72
2023/03/05 06:04:51;;;;;;;;;;;;;;;2.54;100.00;101850.28;5023350;28;19921;-72
2023/03/05 06:07:16;;;;;;;;;;;;;;;2.53;100.00;101843.25;5002198;28;20061;-72
2023/03/05 06:09:42;;;;;;;;;;;;;;;2.57;100.00;101843.16;5022115;28;20044;-72
2023/03/05 06:12:07;;;;;;;;;;;;;;;2.51;100.00;101845.06;5020124;28;19931;-72
2023/03/05 06:14:32;;;;;;;;;;;;;;;2.33;100.00;101851.75;5022099;28;20024;-72
2023/03/05 06:16:57;;;;;;;;;;;;;;;2.42;100.00;101845.31;5009213;28;19928;-72
2023/03/05 06:19:23;;;;;;;;;;;;;;;2.44;100.00;101847.94;5020878;28;19948;-72
2023/03/05 06:21:48;;;;;;;;;;;;;;;2.45;100.00;101844.38;5016338;28;19921;-73
2023/03/05 06:24:13;;;;;;;;;;;;;;;2.52;100.00;101838.84;5022858;28;20016;-72
2023/03/05 06:26:38;;;;;;;;;;;;;;;2.51;100.00;101842.41;5018426;28;20476;-72
2023/03/05 06:29:03;;;;;;;;;;;;;;;2.57;100.00;101845.81;5001790;28;20486;-72
2023/03/05 06:31:29;;;;;;;;;;;;;;;2.57;100.00;101846.66;5016719;28;19925;-72
2023/03/05 06:33:55;;;;;;;;;;;;;;;2.59;100.00;101844.00;5019284;28;19929;-72
2023/03/05 06:36:21;;;;;;;;;;;;;;;2.65;100.00;101847.34;5016468;28;20015;-72
2023/03/05 06:38:46;;;;;;;;;;;;;;;2.69;100.00;101850.75;5014750;28;19921;-72
2023/03/05 06:41:13;;;;;;;;;;;;;;;2.66;100.00;101849.06;5020791;28;19921;-72
2023/03/05 06:43:39;;;;;;;;;;;;;;;2.70;100.00;101853.38;5026175;28;19917;-73
2023/03/05 06:46:05;;;;;;;;;;;;;;;2.75;100.00;101855.03;5021288;28;19925;-72
2023/03/05 06:48:30;;;;;;;;;;;;;;;2.70;100.00;101853.38;5025691;28;19916;-72
2023/03/05 06:50:56;;;;;;;;;;;;;;;2.78;100.00;101847.84;5031746;28;19921;-72
2023/03/05 06:53:22;;;;;;;;;;;;;;;2.78;100.00;101841.69;5030574;28;20040;-73
2023/03/05 06:55:47;;;;;;;;;;;;;;;2.82;100.00;101845.97;5027540;28;19921;-72
2023/03/05 06:58:12;;;;;;;;;;;;;;;2.89;100.00;101850.19;5029978;28;19932;-72
2023/03/05 07:00:38;;;;;;;;;;;;;;;2.91;100.00;101847.50;5016894;28;19964;-73
2023/03/05 07:03:03;;;;;;;;;;;;;;;2.95;100.00;101847.38;5022150;28;19943;-72
2023/03/05 07:05:28;;;;;;;;;;;;;;;2.97;100.00;101849.97;5016204;28;19982;-72
2023/03/05 07:07:53;;;;;;;;;;;;;;;3.07;100.00;101850.53;5015462;28;19952;-73
2023/03/05 07:10:19;;;;;;;;;;;;;;;3.11;100.00;101842.47;5017141;28;19967;-72
2023/03/05 07:12:44;;;;;;;;;;;;;;;3.05;100.00;101834.69;5016472;28;20004;-72
2023/03/05 07:15:09;;;;;;;;;;;;;;;3.15;100.00;101841.47;5017340;28;20326;-73
2023/03/05 07:17:34;;;;;;;;;;;;;;;3.17;100.00;101835.25;5015854;28;19926;-72
2023/03/05 07:20:00;;;;;;;;;;;;;;;3.24;100.00;101840.31;5016809;28;20412;-72
2023/03/05 07:22:25;;;;;;;;;;;;;;;3.26;100.00;101838.47;5016765;28;19921;-72
2023/03/05 07:24:50;;;;;;;;;;;;;;;3.35;100.00;101832.00;5016577;28;19921;-73
2023/03/05 07:27:15;;;;;;;;;;;;;;;3.29;100.00;101837.50;4999997;28;19963;-72
2023/03/05 07:29:41;;;;;;;;;;;;;;;3.34;100.00;101838.22;5017066;28;19921;-72
2023/03/05 07:32:06;;;;;;;;;;;;;;;3.27;100.00;101829.59;5019218;28;20236;-72
2023/03/05 07:34:31;;;;;;;;;;;;;;;3.31;100.00;101830.34;5016851;28;19921;-72
2023/03/05 07:36:56;;;;;;;;;;;;;;;3.34;100.00;101834.69;4998836;28;20504;-72
2023/03/05 07:39:22;;;;;;;;;;;;;;;3.43;100.00;101829.97;4999010;28;19983;-72
2023/03/05 07:41:49;;;;;;;;;;;;;;;3.52;100.00;101833.25;5019194;28;19921;-73
2023/03/05 07:44:16;;;;;;;;;;;;;;;3.59;100.00;101825.03;5017497;28;20359;-72
2023/03/05 07:46:41;;;;;;;;;;;;;;;3.62;100.00;101823.19;5011669;28;19932;-73
2023/03/05 07:49:06;;;;;;;;;;;;;;;3.62;100.00;101829.38;5016815;28;19943;-72
2023/03/05 07:51:31;;;;;;;;;;;;;;;3.62;100.00;101831.16;5021476;28;19924;-72
2023/03/05 07:53:57;;;;;;;;;;;;;;;3.64;100.00;101824.88;5017418;28;19932;-72
2023/03/05 07:56:24;;;;;;;;;;;;;;;3.70;100.00;101827.34;5005472;28;19928;-72
2023/03/05 07:58:49;;;;;;;;;;;;;;;3.75;100.00;101825.38;5022468;28;19922;-72
2023/03/05 08:01:14;;;;;;;;;;;;;;;3.82;100.00;101823.41;5019865;28;20245;-73
2023/03/05 08:03:40;;;;;;;;;;;;;;;3.85;100.00;101825.94;5020523;28;19921;-72
2023/03/05 08:06:05;;;;;;;;;;;;;;;3.72;100.00;101821.97;5002440;28;19929;-72
2023/03/05 08:08:31;;;;;;;;;;;;;;;3.75;100.00;101819.22;5004266;28;20319;-73
2023/03/05 08:11:01;;;;;;;;;;;;;;;3.81;100.00;101821.69;5003622;28;20008;-72
2023/03/05 08:13:26;;;;;;;;;;;;;;;3.85;100.00;101814.47;5024602;28;19921;-72
2023/03/05 08:15:51;;;;;;;;;;;;;;;3.88;100.00;101817.00;5017017;28;20527;-72
2023/03/05 08:18:18;;;;;;;;;;;;;;;3.98;100.00;101813.09;5028162;28;19979;-73
2023/03/05 08:20:43;;;;;;;;;;;;;;;3.98;100.00;101804.28;5019216;28;19928;-72
2023/03/05 08:23:08;;;;;;;;;;;;;;;4.06;100.00;101804.88;5021605;28;19924;-72
2023/03/05 08:25:34;;;;;;;;;;;;;;;4.05;100.00;101798.69;5007830;28;20368;-73
2023/03/05 08:27:59;;;;;;;;;;;;;;;4.15;100.00;101795.72;5022544;28;19928;-72
2023/03/05 08:30:26;;;;;;;;;;;;;;;4.17;100.00;101796.53;5021945;28;19928;-73
2023/03/05 08:32:51;;;;;;;;;;;;;;;4.20;100.00;101801.75;5018954;28;19944;-73
2023/03/05 08:35:16;;;;;;;;;;;;;;;4.22;100.00;101799.91;5019062;28;20450;-72
2023/03/05 08:37:41;;;;;;;;;;;;;;;4.48;100.00;101790.97;5001198;28;19921;-73
2023/03/05 08:40:07;;;;;;;;;;;;;;;4.65;100.00;101787.69;5013860;28;19955;-72
2023/03/05 08:42:32;;;;;;;;;;;;;;;4.83;100.00;101781.72;5019217;28;20192;-73
2023/03/05 08:44:58;;;;;;;;;;;;;;;4.84;100.00;101781.66;5016772;28;19920;-72
2023/03/05 08:47:25;;;;;;;;;;;;;;;4.94;100.00;101780.38;5013762;28;19925;-72
2023/03/05 08:49:54;;;;;;;;;;;;;;;5.48;100.00;101780.00;5017424;28;19928;-72
2023/03/05 08:52:19;;;;;;;;;;;;;;;5.96;100.00;101777.97;5015833;28;20195;-73
2023/03/05 08:54:44;;;;;;;;;;;;;;;5.77;100.00;101779.69;5017288;28;19979;-72
2023/03/05 08:57:10;;;;;;;;;;;;;;;5.50;100.00;101772.81;5015581;28;19932;-73
2023/03/05 08:59:35;;;;;;;;;;;;;;;5.50;100.00;101767.50;5016517;28;19928;-73
2023/03/05 09:02:00;;;;;;;;;;;;;;;5.50;100.00;101766.63;5020794;28;19921;-73
2023/03/05 09:04:25;;;;;;;;;;;;;;;5.44;100.00;101765.06;5017025;28;19932;-73
2023/03/05 09:06:51;;;;;;;;;;;;;;;5.55;100.00;101762.84;5016177;28;19949;-73
2023/03/05 09:09:19;;;;;;;;;;;;;;;5.64;100.00;101761.59;5020701;28;19959;-73
2023/03/05 09:11:44;;;;;;;;;;;;;;;5.47;100.00;101758.75;5014154;28;20391;-72
2023/03/05 09:14:09;;;;;;;;;;;;;;;5.53;100.00;101755.84;5016022;28;19925;-73
2023/03/05 09:16:36;;;;;;;;;;;;;;;5.46;100.00;101759.69;5020510;28;19943;-73
2023/03/05 09:19:01;;;;;;;;;;;;;;;5.54;100.00;101754.91;5014076;28;19924;-73
2023/03/05 09:21:26;;;;;;;;;;;;;;;5.60;100.00;101756.44;5014629;28;19920;-74
2023/03/05 09:23:52;;;;;;;;;;;;;;;5.42;100.00;101755.44;5015797;28;19928;-73
2023/03/05 09:26:20;;;;;;;;;;;;;;;5.61;100.00;101752.84;5016175;28;19957;-73
2023/03/05 09:28:45;;;;;;;;;;;;;;;5.53;100.00;101751.38;5021172;28;19929;-73
2023/03/05 09:31:10;;;;;;;;;;;;;;;5.70;100.00;101745.31;5013576;28;19967;-74
2023/03/05 09:33:36;;;;;;;;;;;;;;;5.49;100.00;101752.44;5027873;28;20393;-73
2023/03/05 09:36:01;;;;;;;;;;;;;;;5.32;100.00;101737.16;5016593;28;19924;-73
2023/03/05 09:38:26;;;;;;;;;;;;;;;5.34;100.00;101742.41;5024978;28;20298;-73
2023/03/05 09:41:04;;;;;;;;;;;;;;;5.13;100.00;101733.53;5018008;28;20390;-73
2023/03/05 09:43:29;;;;;;;;;;;;;;;5.07;100.00;101742.59;5015373;28;19932;-73
2023/03/05 09:46:04;;;;;;;;;;;;;;;4.92;100.00;101739.63;5020231;28;20393;-72
2023/03/05 09:48:47;;;;;;;;;;;;;;;4.98;100.00;101738.53;5018254;28;19925;-73
2023/03/05 09:51:15;;;;;;;;;;;;;;;4.92;100.00;101731.66;5013220;28;19922;-73
2023/03/05 09:53:45;;;;;;;;;;;;;;;4.92;100.00;101736.97;5018289;28;19975;-73
2023/03/05 09:56:24;;;;;;;;;;;;;;;4.75;100.00;101731.47;5019776;28;19921;-73
2023/03/05 09:59:03;;;;;;;;;;;;;;;4.68;100.00;101730.81;5015934;28;19921;-73
2023/03/05 10:01:37;;;;;;;;;;;;;;;4.43;100.00;101730.91;5013455;28;20370;-72
2023/03/05 10:04:05;;;;;;;;;;;;;;;4.42;100.00;101727.34;5017693;28;19921;-73
2023/03/05 10:06:44;;;;;;;;;;;;;;;4.12;100.00;101738.19;5013531;28;19929;-72
2023/03/05 10:09:09;;;;;;;;;;;;;;;4.13;100.00;101728.44;5014946;28;19928;-73
2023/03/05 10:11:50;;;;;;;;;;;;;;;4.09;100.00;101733.03;5017486;28;19921;-72
2023/03/05 10:14:26;;;;;;;;;;;;;;;4.18;100.00;101737.97;5010994;28;19932;-72
2023/03/05 10:17:10;;;;;;;;;;;;;;;4.16;100.00;101734.50;5016665;28;19936;-72
2023/03/05 10:19:44;;;;;;;;;;;;;;;4.22;100.00;101737.88;5032142;28;19963;-72
2023/03/05 10:22:42;;;;;;;;;;;;;;;4.29;100.00;101726.09;5022047;28;19921;-72
2023/03/05 10:25:13;;;;;;;;;;;;;;;4.40;100.00;101725.69;4982586;28;19921;-72
2023/03/05 10:27:38;;;;;;;;;;;;;;;4.32;100.00;101713.53;5014482;28;19988;-73
2023/03/05 10:30:11;;;;;;;;;;;;;;;4.41;100.00;101717.66;5011919;28;20620;-72
2023/03/05 10:33:01;;;;;;;;;;;;;;;4.51;100.00;101715.50;5013354;28;20987;-72
2023/03/05 10:35:38;;;;;;;;;;;;;;;4.86;100.00;101713.25;5011588;28;19924;-74
2023/03/05 10:38:07;;;;;;;;;;;;;;;5.16;100.00;101704.97;5018395;28;19931;-72
2023/03/05 10:40:51;;;;;;;;;;;;;;;5.12;100.00;101698.03;5012813;28;19971;-73
2023/03/05 10:43:35;;;;;;;;;;;;;;;5.33;100.00;101700.72;5008961;28;19927;-72
2023/03/05 10:46:00;;;;;;;;;;;;;;;5.48;100.00;101694.78;5017342;28;19921;-73
2023/03/05 10:48:38;;;;;;;;;;;;;;;5.61;100.00;101688.91;5011533;28;19991;-73
2023/03/05 10:51:03;;;;;;;;;;;;;;;5.91;100.00;101684.03;5014426;28;19932;-73
2023/03/05 10:53:32;;;;;;;;;;;;;;;6.13;100.00;101683.94;5020043;28;19925;-73
2023/03/05 10:56:02;;;;;;;;;;;;;;;6.47;100.00;101676.22;5016944;28;19939;-72
2023/03/05 10:58:28;;;;;;;;;;;;;;;6.86;100.00;101677.88;5019638;28;19967;-73
2023/03/05 11:00:59;;;;;;;;;;;;;;;7.07;100.00;101679.59;5027549;28;20634;-73
2023/03/05 11:03:24;;;;;;;;;;;;;;;7.16;100.00;101673.75;5022908;28;19931;-73
2023/03/05 11:05:50;;;;;;;;;;;;;;;7.07;100.00;101666.22;5014830;28;19921;-73
2023/03/05 11:08:15;;;;;;;;;;;;;;;6.91;100.00;101666.97;5021236;28;19932;-73
2023/03/05 11:10:41;;;;;;;;;;;;;;;6.89;100.00;101671.50;5027160;28;19920;-73
2023/03/05 11:13:18;;;;;;;;;;;;;;;6.80;100.00;101662.16;5013395;28;19971;-73
2023/03/05 11:15:43;;;;;;;;;;;;;;;6.61;100.00;101664.88;5019307;28;20299;-73
2023/03/05 11:18:20;;;;;;;;;;;;;;;6.58;100.00;101659.69;5032999;28;19921;-73
2023/03/05 11:20:45;;;;;;;;;;;;;;;6.45;100.00;101659.41;5010321;28;20035;-73
2023/03/05 11:23:22;;;;;;;;;;;;;;;6.45;100.00;101649.59;5014264;28;20011;-73
2023/03/05 11:25:55;;;;;;;;;;;;;;;6.32;100.00;101653.78;5014884;28;19925;-73
2023/03/05 11:28:21;;;;;;;;;;;;;;;6.40;100.00;101648.06;5020637;28;19925;-73
2023/03/05 11:31:06;;;;;;;;;;;;;;;6.50;100.00;101646.69;5019748;28;19921;-73
2023/03/05 11:33:31;;;;;;;;;;;;;;;6.68;100.00;101639.59;5023925;28;19928;-73
2023/03/05 11:36:12;;;;;;;;;;;;;;;6.48;100.00;101640.59;5015788;28;19921;-74
2023/03/05 11:38:51;;;;;;;;;;;;;;;6.73;100.00;101636.72;5022027;28;19963;-73
2023/03/05 11:41:17;;;;;;;;;;;;;;;6.58;100.00;101630.34;5020842;28;20406;-72
2023/03/05 11:43:43;;;;;;;;;;;;;;;6.68;100.00;101628.06;5016040;28;20132;-73
2023/03/05 11:46:08;;;;;;;;;;;;;;;6.87;100.00;101622.72;5019159;28;19932;-73
2023/03/05 11:48:36;;;;;;;;;;;;;;;6.77;100.00;101622.28;5019970;28;19929;-73
2023/03/05 11:51:05;;;;;;;;;;;;;;;6.83;100.00;101616.63;5015498;28;20692;-73
2023/03/05 11:53:31;;;;;;;;;;;;;;;7.10;100.00;101602.00;5022407;28;20044;-73
2023/03/05 11:55:59;;;;;;;;;;;;;;;7.21;100.00;101604.94;5019357;28;19921;-72
2023/03/05 11:58:40;;;;;;;;;;;;;;;7.07;100.00;101596.81;5019287;28;20020;-73
2023/03/05 12:01:05;;;;;;;;;;;;;;;6.93;100.00;101586.81;5021316;28;19921;-72
2023/03/05 12:03:32;;;;;;;;;;;;;;;6.88;100.00;101592.41;5021287;28;19936;-72
2023/03/05 12:05:59;;;;;;;;;;;;;;;7.31;100.00;101582.19;5008990;28;19928;-73
2023/03/05 12:08:26;;;;;;;;;;;;;;;7.39;100.00;101573.75;5011909;28;20287;-73
2023/03/05 12:10:51;;;;;;;;;;;;;;;7.85;95.46;101564.19;5014677;28;19929;-73
2023/03/05 12:13:23;;;;;;;;;;;;;;;8.27;92.52;101570.81;5010288;28;19936;-73
2023/03/05 12:15:56;;;;;;;;;;;;;;;8.56;90.63;101562.97;5019382;28;20365;-73
2023/03/05 12:18:47;;;;;;;;;;;;;;;8.63;89.95;101561.63;5015340;28;19943;-73
2023/03/05 12:21:25;;;;;;;;;;;;;;;8.39;90.62;101551.34;5012346;28;19922;-73
2023/03/05 12:23:57;;;;;;;;;;;;;;;8.91;89.95;101546.63;5011147;28;19975;-73
2023/03/05 12:26:41;;;;;;;;;;;;;;;9.19;84.31;101542.28;4993373;28;19925;-73
2023/03/05 12:29:13;;;;;;;;;;;;;;;9.53;82.04;101542.91;5017352;28;19964;-73
2023/03/05 12:31:38;;;;;;;;;;;;;;;9.09;79.02;101533.09;5015020;28;19929;-72
2023/03/05 12:34:23;;;;;;;;;;;;;;;8.52;78.47;101529.28;5013564;28;20366;-73
2023/03/05 12:36:48;;;;;;;;;;;;;;;9.09;82.11;101525.91;5010489;28;19921;-73